Terminal Aerodrome Forecast
Issued by NWS Corpus Christi, TX

Home | Current Version | Previous Version | Text Only | Print | Product List | Glossary On
Versions: 1 2 3 4 5 6 7 8 9 10 11 12 13 14 15 16 17
000
FTUS44 KCRP 302336 CCA
TAFVCT
TAF COR
KVCT 302336Z 3100/3124 15015G20KT P6SM SCT250
     FM310200 16010KT P6SM SCT250
     FM310900 VRB03KT P6SM SCT015 BKN250
      TEMPO 3109/3113 5SM BR
     FM311500 17007KT P6SM VCSH SCT030
      TEMPO 3115/3117 BKN030
     FM311700 17008KT P6SM VCTS BKN040CB
     FM312100 16015G20KT P6SM SCT050=

USA.gov is the U.S. government's official web portal to all federal, state and local government web resources and services.